createdAt,value
2023-05-08T00:03:01.673Z,2.52
2023-05-08T00:08:10.220Z,2.38
2023-05-08T00:13:18.883Z,2.36
2023-05-08T00:18:25.683Z,2.38
2023-05-08T00:23:33.865Z,2.37
2023-05-08T00:28:40.468Z,2.15
2023-05-08T00:33:47.072Z,2.23
2023-05-08T00:38:55.600Z,2.12
2023-05-08T00:44:02.279Z,1.91
2023-05-08T00:49:10.708Z,1.90
2023-05-08T00:54:21.579Z,1.82
2023-05-08T00:59:28.976Z,1.81
2023-05-08T01:04:38.753Z,1.85
2023-05-08T01:09:47.953Z,1.74
2023-05-08T01:15:07.885Z,1.80
2023-05-08T01:20:34.014Z,1.79
2023-05-08T01:26:41.590Z,1.72
2023-05-08T01:32:16.722Z,1.72
2023-05-08T01:37:37.785Z,1.67
2023-05-08T01:42:53.210Z,1.59
2023-05-08T01:48:07.578Z,1.37
2023-05-08T01:53:24.817Z,1.36
2023-05-08T01:58:36.971Z,1.32
2023-05-08T02:03:46.557Z,1.28
2023-05-08T02:08:55.827Z,1.19
2023-05-08T02:14:05.307Z,1.22
2023-05-08T02:19:13.756Z,1.27
2023-05-08T02:24:21.415Z,1.29
2023-05-08T02:29:29.138Z,1.18
2023-05-08T02:34:41.035Z,1.15
2023-05-08T02:39:55.573Z,1.15
2023-05-08T02:45:03.292Z,1.19
2023-05-08T02:50:21.273Z,1.22
2023-05-08T02:55:41.561Z,1.19
2023-05-08T03:00:58.705Z,1.17
2023-05-08T03:06:13.787Z,1.25
2023-05-08T03:11:25.941Z,1.30
2023-05-08T03:16:36.761Z,1.29
2023-05-08T03:21:46.653Z,1.24
2023-05-08T03:26:54.622Z,1.00
2023-05-08T03:32:03.982Z,0.80
2023-05-08T03:37:16.393Z,0.91
2023-05-08T03:42:23.874Z,1.00
2023-05-08T03:47:30.857Z,1.03
2023-05-08T03:52:39.985Z,1.18
2023-05-08T03:57:53.520Z,1.27
2023-05-08T04:03:13.281Z,1.39
2023-05-08T04:08:29.070Z,1.75
2023-05-08T04:13:49.700Z,1.99
2023-05-08T04:19:04.132Z,2.22
2023-05-08T04:24:17.053Z,2.38
2023-05-08T04:29:27.311Z,2.53
2023-05-08T04:34:34.338Z,2.66
2023-05-08T04:39:43.753Z,2.87
2023-05-08T04:44:53.173Z,3.09
2023-05-08T04:50:02.833Z,3.20
2023-05-08T04:55:14.416Z,3.38
2023-05-08T05:00:22.592Z,3.71
2023-05-08T05:05:29.302Z,3.96
2023-05-08T05:10:37.265Z,4.14
2023-05-08T05:15:45.208Z,4.49
2023-05-08T05:20:52.691Z,4.90
2023-05-08T05:26:01.974Z,5.21
2023-05-08T05:31:10.670Z,5.29
2023-05-08T05:36:18.442Z,5.40
2023-05-08T05:41:28.238Z,5.69
2023-05-08T05:46:34.518Z,5.80
2023-05-08T05:51:43.284Z,6.00
2023-05-08T05:56:51.428Z,6.15
2023-05-08T06:01:58.321Z,6.31
2023-05-08T06:07:05.053Z,6.72
2023-05-08T06:12:15.399Z,7.03
2023-05-08T06:17:22.578Z,7.33
2023-05-08T06:22:29.822Z,7.39
2023-05-08T06:27:38.119Z,7.71
2023-05-08T06:32:44.698Z,8.06
2023-05-08T06:37:52.756Z,8.23
2023-05-08T06:43:02.523Z,8.41
2023-05-08T06:48:09.615Z,8.49
2023-05-08T06:53:18.322Z,8.61
2023-05-08T06:58:27.698Z,8.74
2023-05-08T07:03:38.154Z,8.86
2023-05-08T07:08:44.753Z,9.00
2023-05-08T07:13:52.823Z,9.11
2023-05-08T07:18:59.502Z,9.22
2023-05-08T07:24:09.081Z,9.30
2023-05-08T07:29:17.111Z,9.33
2023-05-08T07:34:23.815Z,9.36
2023-05-08T07:39:30.533Z,9.48
2023-05-08T07:44:53.204Z,9.67
2023-05-08T07:50:01.148Z,9.65
2023-05-08T07:55:09.639Z,9.87
2023-05-08T08:00:19.192Z,10.25
2023-05-08T08:05:27.209Z,10.10
2023-05-08T08:10:35.544Z,10.27
2023-05-08T08:15:43.529Z,10.60
2023-05-08T08:20:49.798Z,10.36
2023-05-08T08:26:00.833Z,10.55
2023-05-08T08:31:08.883Z,10.55
2023-05-08T08:36:18.341Z,10.60
2023-05-08T08:41:24.973Z,10.49
2023-05-08T08:46:34.050Z,10.59
2023-05-08T08:51:52.581Z,10.86
2023-05-08T08:57:02.443Z,10.78
2023-05-08T09:02:18.114Z,10.98
2023-05-08T09:07:26.626Z,11.19
2023-05-08T09:12:33.287Z,11.12
2023-05-08T09:17:41.525Z,10.86
2023-05-08T09:22:49.115Z,10.82
2023-05-08T09:27:56.246Z,10.76
2023-05-08T09:33:05.906Z,11.05
2023-05-08T09:38:33.556Z,11.19
2023-05-08T09:43:40.877Z,11.18
2023-05-08T09:48:48.772Z,11.53
2023-05-08T09:53:56.065Z,11.57
2023-05-08T09:59:03.699Z,11.91
2023-05-08T10:04:11.867Z,11.96
2023-05-08T10:09:18.777Z,12.19
2023-05-08T10:14:26.530Z,12.14
2023-05-08T10:19:34.564Z,12.14
2023-05-08T10:24:47.248Z,12.06
2023-05-08T10:29:56.548Z,11.97
2023-05-08T10:35:05.421Z,11.93
2023-05-08T10:40:13.559Z,12.12
2023-05-08T10:45:20.453Z,12.02
2023-05-08T10:50:44.435Z,12.01
2023-05-08T10:55:54.547Z,12.06
2023-05-08T11:01:19.037Z,12.41
2023-05-08T11:06:53.331Z,12.54
2023-05-08T11:12:10.635Z,12.70
2023-05-08T11:17:26.509Z,12.97
2023-05-08T11:22:35.296Z,13.05
2023-05-08T11:28:11.950Z,13.06
2023-05-08T11:33:19.628Z,12.95
2023-05-08T11:38:34.607Z,13.07
2023-05-08T11:44:18.858Z,13.15
2023-05-08T11:49:30.098Z,12.98
2023-05-08T11:54:39.268Z,13.22
2023-05-08T11:59:46.270Z,13.47
2023-05-08T12:04:52.927Z,13.45
2023-05-08T12:10:03.113Z,13.20
2023-05-08T12:15:13.223Z,13.23
2023-05-08T12:20:22.201Z,13.12
2023-05-08T12:25:30.616Z,13.50
2023-05-08T12:30:37.489Z,14.01
2023-05-08T12:35:45.584Z,14.05
2023-05-08T12:40:55.992Z,13.86
2023-05-08T12:46:03.171Z,13.87
2023-05-08T12:51:09.757Z,14.32
2023-05-08T12:56:24.706Z,14.31
2023-05-08T13:01:31.348Z,14.61
2023-05-08T13:06:38.135Z,14.50
2023-05-08T13:11:46.298Z,14.50
2023-05-08T13:16:53.338Z,14.09
2023-05-08T13:21:59.868Z,13.93
2023-05-08T13:27:07.955Z,14.08
2023-05-08T13:32:14.777Z,14.03
2023-05-08T13:37:21.572Z,14.25
2023-05-08T13:42:29.573Z,14.05
2023-05-08T13:47:36.520Z,14.02
2023-05-08T13:52:44.159Z,14.07
2023-05-08T13:57:52.508Z,14.39
2023-05-08T14:02:59.061Z,14.56
2023-05-08T14:08:05.738Z,14.52
2023-05-08T14:13:14.372Z,14.49
2023-05-08T14:18:21.110Z,14.45
2023-05-08T14:23:28.304Z,14.52
2023-05-08T14:28:38.103Z,14.58
2023-05-08T14:33:44.734Z,14.57
2023-05-08T14:38:51.716Z,14.61
2023-05-08T14:44:00.498Z,14.76
2023-05-08T14:49:08.135Z,14.68
2023-05-08T14:54:15.124Z,14.65
2023-05-08T14:59:23.474Z,14.56
2023-05-08T15:04:30.156Z,14.44
2023-05-08T15:09:37.924Z,14.49
2023-05-08T15:14:46.532Z,14.60
2023-05-08T15:19:52.842Z,14.71
2023-05-08T15:25:02.841Z,14.74
2023-05-08T15:30:15.416Z,14.85
2023-05-08T15:35:23.955Z,14.99
2023-05-08T15:40:32.678Z,14.90
2023-05-08T15:45:41.179Z,14.83
2023-05-08T15:50:47.988Z,14.76
2023-05-08T15:55:55.726Z,14.76
2023-05-08T16:01:05.241Z,14.72
2023-05-08T16:06:13.454Z,14.69
2023-05-08T16:11:20.160Z,14.69
2023-05-08T16:16:28.273Z,14.44
2023-05-08T16:21:35.166Z,14.43
2023-05-08T16:26:42.044Z,14.44
2023-05-08T16:31:50.510Z,14.38
2023-05-08T16:36:58.801Z,14.35
2023-05-08T16:42:06.597Z,14.29
2023-05-08T16:47:14.834Z,14.26
2023-05-08T16:52:22.168Z,14.19
2023-05-08T16:57:29.072Z,14.08
2023-05-08T17:02:37.258Z,13.99
2023-05-08T17:07:43.961Z,13.85
2023-05-08T17:12:51.777Z,13.69
2023-05-08T17:18:01.888Z,13.56
2023-05-08T17:23:08.838Z,13.47
2023-05-08T17:28:15.537Z,13.34
2023-05-08T17:33:23.627Z,13.23
2023-05-08T17:38:30.486Z,13.11
2023-05-08T17:43:37.130Z,12.97
2023-05-08T17:48:45.517Z,12.78
2023-05-08T17:53:53.321Z,12.59
2023-05-08T17:58:59.966Z,12.39
2023-05-08T18:04:08.434Z,12.02
2023-05-08T18:09:15.589Z,11.88
2023-05-08T18:14:24.016Z,11.77
2023-05-08T18:19:32.280Z,11.61
2023-05-08T18:24:39.520Z,11.42
2023-05-08T18:29:46.476Z,11.24
2023-05-08T18:34:57.349Z,11.06
2023-05-08T18:40:05.539Z,10.88
2023-05-08T18:45:13.761Z,10.64
2023-05-08T18:50:22.387Z,10.53
2023-05-08T18:55:30.809Z,10.40
2023-05-08T19:00:38.076Z,10.18
2023-05-08T19:05:51.582Z,10.03
2023-05-08T19:10:58.577Z,9.86
2023-05-08T19:16:05.373Z,9.73
2023-05-08T19:21:15.716Z,9.51
2023-05-08T19:26:23.576Z,9.32
2023-05-08T19:31:31.727Z,9.15
2023-05-08T19:36:40.998Z,8.88
2023-05-08T19:41:48.768Z,8.78
2023-05-08T19:46:55.635Z,8.43
2023-05-08T19:52:03.827Z,8.19
2023-05-08T19:57:10.619Z,8.07
2023-05-08T20:02:18.097Z,7.94
2023-05-08T20:07:26.503Z,7.76
2023-05-08T20:12:33.584Z,7.51
2023-05-08T20:17:40.938Z,7.44
2023-05-08T20:22:49.766Z,7.47
2023-05-08T20:27:56.666Z,7.33
2023-05-08T20:33:05.432Z,7.04
2023-05-08T20:38:15.068Z,6.94
2023-05-08T20:43:21.987Z,6.96
2023-05-08T20:48:28.778Z,6.89
2023-05-08T20:53:36.881Z,6.76
2023-05-08T20:58:43.281Z,6.67
2023-05-08T21:03:50.054Z,6.50
2023-05-08T21:08:59.263Z,6.37
2023-05-08T21:14:05.801Z,6.30
2023-05-08T21:19:17.263Z,6.15
2023-05-08T21:24:26.090Z,6.00
2023-05-08T21:29:32.466Z,5.85
2023-05-08T21:34:38.889Z,5.84
2023-05-08T21:39:47.603Z,5.80
2023-05-08T21:44:57.301Z,5.74
2023-05-08T21:50:04.221Z,5.51
2023-05-08T21:55:13.148Z,5.48
2023-05-08T22:00:21.553Z,5.43
2023-05-08T22:05:27.893Z,5.30
2023-05-08T22:10:35.868Z,5.16
2023-05-08T22:15:44.315Z,5.07
2023-05-08T22:20:50.743Z,5.11
2023-05-08T22:25:58.746Z,5.00
2023-05-08T22:31:05.219Z,4.92
2023-05-08T22:36:12.960Z,4.73
2023-05-08T22:41:22.573Z,4.46
2023-05-08T22:46:28.815Z,4.35
2023-05-08T22:51:36.488Z,4.42
2023-05-08T22:56:44.921Z,4.44
2023-05-08T23:01:51.376Z,4.38
2023-05-08T23:06:57.935Z,4.31
2023-05-08T23:12:06.476Z,4.05
2023-05-08T23:17:14.454Z,4.04
2023-05-08T23:22:21.249Z,4.10
2023-05-08T23:27:29.747Z,3.95
2023-05-08T23:32:36.285Z,3.95
2023-05-08T23:37:44.983Z,3.94
2023-05-08T23:42:53.357Z,3.91
2023-05-08T23:48:00.293Z,3.89
2023-05-08T23:53:07.105Z,3.83
2023-05-08T23:58:15.729Z,3.51
